createdAt,value
2023-05-14T00:01:24.841Z,13.07
2023-05-14T00:03:51.334Z,13.05
2023-05-14T00:06:17.899Z,13.02
2023-05-14T00:08:44.305Z,12.95
2023-05-14T00:11:10.916Z,12.95
2023-05-14T00:13:37.549Z,12.91
2023-05-14T00:16:04.295Z,12.89
2023-05-14T00:18:30.877Z,12.86
2023-05-14T00:20:57.421Z,12.82
2023-05-14T00:23:24.066Z,12.81
2023-05-14T00:25:50.508Z,12.74
2023-05-14T00:28:16.952Z,12.71
2023-05-14T00:30:43.404Z,12.69
2023-05-14T00:33:09.894Z,12.66
2023-05-14T00:35:36.344Z,12.64
2023-05-14T00:38:03.431Z,12.59
2023-05-14T00:40:30.626Z,12.58
2023-05-14T00:42:57.264Z,12.57
2023-05-14T00:45:23.933Z,12.56
2023-05-14T00:47:51.136Z,12.53
2023-05-14T00:50:17.985Z,12.48
2023-05-14T00:52:45.004Z,12.45
2023-05-14T00:55:16.294Z,12.42
2023-05-14T00:57:43.022Z,12.41
2023-05-14T01:00:09.946Z,12.39
2023-05-14T01:02:36.504Z,12.36
2023-05-14T01:05:03.648Z,12.35
2023-05-14T01:08:02.023Z,12.35
2023-05-14T01:10:38.980Z,12.27
2023-05-14T01:13:24.691Z,12.23
2023-05-14T01:15:52.202Z,12.16
2023-05-14T01:18:19.613Z,12.13
2023-05-14T01:20:46.387Z,12.11
2023-05-14T01:23:12.772Z,12.09
2023-05-14T01:25:39.255Z,12.06
2023-05-14T01:28:11.430Z,12.05
2023-05-14T01:30:43.376Z,12.02
2023-05-14T01:33:16.318Z,12.00
2023-05-14T01:35:43.624Z,11.96
2023-05-14T01:38:13.937Z,11.94
2023-05-14T01:40:41.826Z,11.90
2023-05-14T01:43:08.735Z,11.84
2023-05-14T01:45:36.656Z,11.78
2023-05-14T01:48:04.989Z,11.74
2023-05-14T01:50:31.864Z,11.74
2023-05-14T01:52:58.437Z,11.73
2023-05-14T01:55:25.470Z,11.73
2023-05-14T01:57:52.729Z,11.68
2023-05-14T02:00:20.374Z,11.68
2023-05-14T02:02:46.828Z,11.65
2023-05-14T02:05:13.582Z,11.64
2023-05-14T02:07:40.314Z,11.62
2023-05-14T02:10:07.622Z,11.62
2023-05-14T02:12:34.094Z,11.61
2023-05-14T02:15:00.732Z,11.60
2023-05-14T02:17:27.246Z,11.59
2023-05-14T02:19:53.791Z,11.55
2023-05-14T02:22:20.283Z,11.47
2023-05-14T02:24:46.676Z,11.43
2023-05-14T02:27:13.456Z,11.41
2023-05-14T02:29:39.855Z,11.41
2023-05-14T02:32:06.637Z,11.38
2023-05-14T02:34:34.402Z,11.37
2023-05-14T02:37:01.090Z,11.37
2023-05-14T02:39:27.606Z,11.35
2023-05-14T02:41:53.978Z,11.31
2023-05-14T02:44:20.440Z,11.29
2023-05-14T02:46:47.456Z,11.29
2023-05-14T02:49:13.842Z,11.29
2023-05-14T02:51:40.373Z,11.27
2023-05-14T02:54:07.210Z,11.24
2023-05-14T02:56:33.603Z,11.22
2023-05-14T02:59:00.331Z,11.17
2023-05-14T03:01:27.124Z,11.15
2023-05-14T03:03:54.027Z,11.12
2023-05-14T03:06:20.504Z,11.11
2023-05-14T03:08:46.915Z,11.08
2023-05-14T03:11:13.445Z,11.08
2023-05-14T03:13:39.876Z,11.06
2023-05-14T03:16:06.581Z,11.03
2023-05-14T03:18:34.802Z,11.02
2023-05-14T03:21:01.418Z,11.00
2023-05-14T03:23:27.939Z,10.97
2023-05-14T03:25:54.375Z,10.95
2023-05-14T03:28:20.746Z,10.94
2023-05-14T03:30:47.294Z,10.92
2023-05-14T03:33:13.895Z,10.90
2023-05-14T03:35:40.340Z,10.90
2023-05-14T03:38:07.465Z,10.90
2023-05-14T03:40:34.018Z,10.87
2023-05-14T03:43:00.783Z,10.86
2023-05-14T03:45:28.663Z,10.86
2023-05-14T03:47:55.263Z,10.86
2023-05-14T03:50:22.005Z,10.83
2023-05-14T03:52:48.677Z,10.82
2023-05-14T03:55:15.025Z,10.81
2023-05-14T03:57:41.413Z,10.80
2023-05-14T04:00:08.715Z,10.80
2023-05-14T04:02:35.235Z,10.80
2023-05-14T04:05:01.703Z,10.79
2023-05-14T04:07:28.194Z,10.78
2023-05-14T04:09:54.560Z,10.80
2023-05-14T04:12:21.065Z,10.81
2023-05-14T04:14:47.542Z,10.81
2023-05-14T04:17:13.964Z,10.80
2023-05-14T04:19:40.539Z,10.82
2023-05-14T04:22:06.935Z,10.83
2023-05-14T04:24:33.393Z,10.85
2023-05-14T04:27:00.067Z,10.83
2023-05-14T04:29:26.533Z,10.86
2023-05-14T04:31:53.740Z,10.86
2023-05-14T04:34:20.265Z,10.88
2023-05-14T04:36:46.884Z,10.88
2023-05-14T04:39:13.301Z,10.92
2023-05-14T04:41:39.687Z,10.96
2023-05-14T04:44:06.937Z,11.00
2023-05-14T04:46:33.404Z,11.05
2023-05-14T04:48:59.864Z,11.07
2023-05-14T04:51:26.321Z,11.15
2023-05-14T04:53:52.703Z,11.22
2023-05-14T04:56:19.100Z,11.25
2023-05-14T04:58:45.498Z,11.26
2023-05-14T05:01:12.250Z,11.29
2023-05-14T05:03:38.739Z,11.31
2023-05-14T05:06:05.299Z,11.36
2023-05-14T05:08:31.839Z,11.41
2023-05-14T05:10:58.235Z,11.44
2023-05-14T05:13:24.734Z,11.47
2023-05-14T05:15:51.301Z,11.50
2023-05-14T05:18:17.818Z,11.51
2023-05-14T05:20:44.287Z,11.55
2023-05-14T05:23:10.924Z,11.57
2023-05-14T05:25:37.467Z,11.62
2023-05-14T05:28:04.096Z,11.63
2023-05-14T05:30:30.790Z,11.64
2023-05-14T05:32:57.680Z,11.66
2023-05-14T05:35:24.319Z,11.69
2023-05-14T05:37:50.947Z,11.75
2023-05-14T05:40:17.486Z,11.77
2023-05-14T05:42:43.875Z,11.81
2023-05-14T05:45:10.657Z,11.89
2023-05-14T05:47:37.178Z,11.93
2023-05-14T05:50:04.026Z,11.95
2023-05-14T05:52:30.709Z,11.99
2023-05-14T05:54:57.097Z,12.01
2023-05-14T05:57:26.201Z,12.02
2023-05-14T05:59:53.168Z,12.08
2023-05-14T06:02:19.988Z,12.10
2023-05-14T06:04:46.742Z,12.04
2023-05-14T06:07:13.122Z,12.05
2023-05-14T06:09:39.564Z,12.18
2023-05-14T06:12:06.385Z,12.43
2023-05-14T06:14:32.778Z,12.40
2023-05-14T06:16:59.257Z,12.37
2023-05-14T06:19:25.651Z,12.36
2023-05-14T06:21:52.007Z,12.88
2023-05-14T06:24:20.022Z,12.90
2023-05-14T06:26:46.512Z,12.89
2023-05-14T06:29:12.911Z,12.91
2023-05-14T06:31:39.555Z,13.64
2023-05-14T06:34:06.111Z,14.60
2023-05-14T06:36:32.503Z,14.37
2023-05-14T06:38:58.939Z,14.14
2023-05-14T06:41:26.169Z,13.92
2023-05-14T06:43:52.568Z,13.88
2023-05-14T06:46:18.970Z,14.01
2023-05-14T06:48:45.827Z,14.54
2023-05-14T06:51:13.285Z,15.07
2023-05-14T06:53:40.647Z,15.48
2023-05-14T06:56:07.796Z,15.64
2023-05-14T06:58:34.209Z,15.65
2023-05-14T07:01:00.738Z,15.64
2023-05-14T07:03:27.231Z,15.76
2023-05-14T07:05:53.647Z,15.77
2023-05-14T07:08:20.045Z,15.53
2023-05-14T07:10:46.457Z,15.65
2023-05-14T07:13:12.911Z,15.63
2023-05-14T07:15:39.349Z,15.51
2023-05-14T07:18:05.782Z,15.52
2023-05-14T07:20:32.212Z,15.74
2023-05-14T07:22:58.624Z,15.88
2023-05-14T07:25:25.091Z,15.92
2023-05-14T07:27:51.484Z,16.10
2023-05-14T07:30:18.305Z,16.26
2023-05-14T07:32:45.038Z,16.29
2023-05-14T07:35:11.837Z,16.50
2023-05-14T07:37:38.660Z,16.68
2023-05-14T07:40:05.652Z,16.91
2023-05-14T07:42:36.484Z,17.02
2023-05-14T07:45:04.668Z,16.85
2023-05-14T07:47:31.586Z,16.90
2023-05-14T07:49:59.670Z,17.19
2023-05-14T07:52:26.140Z,17.30
2023-05-14T07:54:52.895Z,17.21
2023-05-14T07:57:20.232Z,17.37
2023-05-14T07:59:47.864Z,17.51
2023-05-14T08:02:16.077Z,17.40
2023-05-14T08:04:42.592Z,17.61
2023-05-14T08:07:09.276Z,17.85
2023-05-14T08:09:35.848Z,17.71
2023-05-14T08:12:02.485Z,17.63
2023-05-14T08:14:28.857Z,17.58
2023-05-14T08:16:55.263Z,17.50
2023-05-14T08:19:21.817Z,17.52
2023-05-14T08:21:48.218Z,17.54
2023-05-14T08:24:15.033Z,17.71
2023-05-14T08:26:41.935Z,18.02
2023-05-14T08:29:10.015Z,18.25
2023-05-14T08:31:37.403Z,18.41
2023-05-14T08:34:03.817Z,18.38
2023-05-14T08:36:30.643Z,18.56
2023-05-14T08:38:57.123Z,18.60
2023-05-14T08:41:23.836Z,18.69
2023-05-14T08:44:14.082Z,18.97
2023-05-14T08:46:41.326Z,19.22
2023-05-14T08:49:42.658Z,19.62
2023-05-14T08:52:10.611Z,20.05
2023-05-14T08:54:37.308Z,20.14
2023-05-14T08:57:05.390Z,19.94
2023-05-14T08:59:31.812Z,20.06
2023-05-14T09:02:02.731Z,19.86
2023-05-14T09:04:31.592Z,19.80
2023-05-14T09:07:01.524Z,19.88
2023-05-14T09:09:28.536Z,20.03
2023-05-14T09:11:54.972Z,20.08
2023-05-14T09:14:23.870Z,20.21
2023-05-14T09:16:51.750Z,20.32
2023-05-14T09:19:19.600Z,19.98
2023-05-14T09:21:47.479Z,19.85
2023-05-14T09:24:21.471Z,20.06
2023-05-14T09:26:51.590Z,20.09
2023-05-14T09:29:18.287Z,20.28
2023-05-14T09:31:45.107Z,20.45
2023-05-14T09:34:12.213Z,20.51
2023-05-14T09:36:38.876Z,20.55
2023-05-14T09:39:05.808Z,20.58
2023-05-14T09:41:32.304Z,20.45
2023-05-14T09:43:58.758Z,20.38
2023-05-14T09:46:30.198Z,20.47
2023-05-14T09:48:56.988Z,20.68
2023-05-14T09:51:23.975Z,20.60
2023-05-14T09:53:53.227Z,20.39
2023-05-14T09:56:21.675Z,20.29
2023-05-14T09:58:48.621Z,20.36
2023-05-14T10:01:18.240Z,20.51
2023-05-14T10:03:45.026Z,20.46
2023-05-14T10:06:13.317Z,20.55
2023-05-14T10:08:43.825Z,20.61
2023-05-14T10:11:21.052Z,20.80
2023-05-14T10:13:57.039Z,20.86
2023-05-14T10:16:31.991Z,20.86
2023-05-14T10:19:08.009Z,20.72
2023-05-14T10:21:36.877Z,20.71
2023-05-14T10:24:07.638Z,20.75
2023-05-14T10:26:39.197Z,20.89
2023-05-14T10:29:06.430Z,20.83
2023-05-14T10:31:56.218Z,20.91
2023-05-14T10:34:32.595Z,21.05
2023-05-14T10:37:01.203Z,21.12
2023-05-14T10:39:52.293Z,21.37
2023-05-14T10:42:21.839Z,21.55
2023-05-14T10:44:55.462Z,21.63
2023-05-14T10:47:22.655Z,21.45
2023-05-14T10:49:49.490Z,21.23
2023-05-14T10:52:19.298Z,21.36
2023-05-14T10:54:56.411Z,21.53
2023-05-14T10:57:24.789Z,21.64
2023-05-14T10:59:57.112Z,21.27
2023-05-14T11:02:27.999Z,21.14
2023-05-14T11:05:15.727Z,21.46
2023-05-14T11:07:44.630Z,21.33
2023-05-14T11:10:18.942Z,21.61
2023-05-14T11:12:47.294Z,21.69
2023-05-14T11:15:26.031Z,21.85
2023-05-14T11:17:53.901Z,22.02
2023-05-14T11:20:21.285Z,22.24
2023-05-14T11:22:49.161Z,22.14
2023-05-14T11:25:15.812Z,22.28
2023-05-14T11:27:46.736Z,22.41
2023-05-14T11:30:18.397Z,22.54
2023-05-14T11:32:46.819Z,22.69
2023-05-14T11:35:14.037Z,22.75
2023-05-14T11:37:40.732Z,22.62
2023-05-14T11:40:11.996Z,22.40
2023-05-14T11:42:38.892Z,22.41
2023-05-14T11:45:06.222Z,22.33
2023-05-14T11:47:32.841Z,22.28
2023-05-14T11:50:01.041Z,22.29
2023-05-14T11:52:27.640Z,22.22
2023-05-14T11:54:54.068Z,21.98
2023-05-14T11:57:21.811Z,21.89
2023-05-14T11:59:49.715Z,21.86
2023-05-14T12:02:18.380Z,21.96
2023-05-14T12:04:49.503Z,22.29
2023-05-14T12:07:16.625Z,22.58
2023-05-14T12:09:51.493Z,22.73
2023-05-14T12:12:20.343Z,22.96
2023-05-14T12:14:47.652Z,22.79
2023-05-14T12:17:22.708Z,22.89
2023-05-14T12:19:51.271Z,22.82
2023-05-14T12:22:19.909Z,22.74
2023-05-14T12:24:54.470Z,22.61
2023-05-14T12:27:24.965Z,22.61
2023-05-14T12:30:09.133Z,22.47
2023-05-14T12:32:42.965Z,22.44
2023-05-14T12:35:10.181Z,22.41
2023-05-14T12:37:37.586Z,22.69
2023-05-14T12:40:08.934Z,22.68
2023-05-14T12:42:35.524Z,22.53
2023-05-14T12:45:05.378Z,22.39
2023-05-14T12:47:32.463Z,22.23
2023-05-14T12:49:59.002Z,22.49
2023-05-14T12:52:36.615Z,22.76
2023-05-14T12:55:05.314Z,22.71
2023-05-14T12:57:32.255Z,22.48
2023-05-14T12:59:58.894Z,22.43
2023-05-14T13:02:25.502Z,22.58
2023-05-14T13:04:51.920Z,22.49
2023-05-14T13:07:18.431Z,22.52
2023-05-14T13:09:44.887Z,22.55
2023-05-14T13:12:11.350Z,22.51
2023-05-14T13:14:37.760Z,22.56
2023-05-14T13:17:04.848Z,22.80
2023-05-14T13:19:31.704Z,22.92
2023-05-14T13:21:58.089Z,22.88
2023-05-14T13:24:25.067Z,22.93
2023-05-14T13:26:51.435Z,22.71
2023-05-14T13:29:17.802Z,22.79
2023-05-14T13:31:44.306Z,22.83
2023-05-14T13:34:10.733Z,22.70
2023-05-14T13:36:39.641Z,22.61
2023-05-14T13:39:07.263Z,22.54
2023-05-14T13:41:35.696Z,22.58
2023-05-14T13:44:02.124Z,22.83
2023-05-14T13:46:28.873Z,22.88
2023-05-14T13:48:55.343Z,22.92
2023-05-14T13:51:23.572Z,22.92
2023-05-14T13:53:50.167Z,23.09
2023-05-14T13:56:16.589Z,23.24
2023-05-14T13:58:43.057Z,23.05
2023-05-14T14:01:09.488Z,23.14
2023-05-14T14:03:35.955Z,23.16
2023-05-14T14:06:02.401Z,23.13
2023-05-14T14:08:29.026Z,22.94
2023-05-14T14:10:55.776Z,22.67
2023-05-14T14:13:22.737Z,22.58
2023-05-14T14:15:49.953Z,22.76
2023-05-14T14:18:16.552Z,22.76
2023-05-14T14:20:43.043Z,22.60
2023-05-14T14:23:09.523Z,22.61
2023-05-14T14:25:35.936Z,22.55
2023-05-14T14:28:02.406Z,22.56
2023-05-14T14:30:28.881Z,22.53
2023-05-14T14:32:55.760Z,22.54
2023-05-14T14:35:23.351Z,22.67
2023-05-14T14:37:52.217Z,22.73
2023-05-14T14:40:18.831Z,22.67
2023-05-14T14:42:45.559Z,22.67
2023-05-14T14:45:12.466Z,22.80
2023-05-14T14:47:42.736Z,22.89
2023-05-14T14:50:10.024Z,22.84
2023-05-14T14:52:36.663Z,22.90
2023-05-14T14:55:03.265Z,22.98
2023-05-14T14:57:29.641Z,23.01
2023-05-14T14:59:56.135Z,22.94
2023-05-14T15:02:22.884Z,22.85
2023-05-14T15:04:49.359Z,22.71
2023-05-14T15:07:20.232Z,22.81
2023-05-14T15:09:46.630Z,22.76
2023-05-14T15:12:14.286Z,22.84
2023-05-14T15:14:40.653Z,22.76
2023-05-14T15:17:07.249Z,22.60
2023-05-14T15:19:33.666Z,22.52
2023-05-14T15:22:00.124Z,22.66
2023-05-14T15:24:26.607Z,22.80
2023-05-14T15:26:53.644Z,22.67
2023-05-14T15:29:20.460Z,22.58
2023-05-14T15:31:47.086Z,22.46
2023-05-14T15:34:13.562Z,22.28
2023-05-14T15:36:40.101Z,22.28
2023-05-14T15:39:06.678Z,22.14
2023-05-14T15:41:34.413Z,22.18
2023-05-14T15:44:00.811Z,21.93
2023-05-14T15:46:27.351Z,21.94
2023-05-14T15:48:53.913Z,22.01
2023-05-14T15:51:20.358Z,21.77
2023-05-14T15:53:46.876Z,21.84
2023-05-14T15:56:13.274Z,21.71
2023-05-14T15:58:39.711Z,21.55
2023-05-14T16:01:06.120Z,21.42
2023-05-14T16:03:32.680Z,21.49
2023-05-14T16:05:59.686Z,21.47
2023-05-14T16:08:26.170Z,21.43
2023-05-14T16:10:52.646Z,21.48
2023-05-14T16:13:19.578Z,21.60
2023-05-14T16:15:46.513Z,21.68
2023-05-14T16:18:12.952Z,21.62
2023-05-14T16:20:39.340Z,21.61
2023-05-14T16:23:05.766Z,21.52
2023-05-14T16:25:32.204Z,21.41
2023-05-14T16:27:58.645Z,21.41
2023-05-14T16:30:25.312Z,21.28
2023-05-14T16:32:51.991Z,21.15
2023-05-14T16:35:18.535Z,21.22
2023-05-14T16:37:45.011Z,21.03
2023-05-14T16:40:12.164Z,20.88
2023-05-14T16:42:39.082Z,20.68
2023-05-14T16:45:06.280Z,20.72
2023-05-14T16:47:32.753Z,20.68
2023-05-14T16:49:59.171Z,20.59
2023-05-14T16:52:25.793Z,20.55
2023-05-14T16:54:52.196Z,20.47
2023-05-14T16:57:18.668Z,20.27
2023-05-14T16:59:45.202Z,20.23
2023-05-14T17:02:11.616Z,20.19
2023-05-14T17:04:41.966Z,20.11
2023-05-14T17:07:08.682Z,20.13
2023-05-14T17:09:35.773Z,20.11
2023-05-14T17:12:02.190Z,20.15
2023-05-14T17:14:28.596Z,20.15
2023-05-14T17:16:55.852Z,19.99
2023-05-14T17:19:22.540Z,19.84
2023-05-14T17:21:49.042Z,19.70
2023-05-14T17:24:15.800Z,19.59
2023-05-14T17:26:42.174Z,19.52
2023-05-14T17:29:08.532Z,19.55
2023-05-14T17:31:35.046Z,19.43
2023-05-14T17:34:01.515Z,19.21
2023-05-14T17:36:28.647Z,19.05
2023-05-14T17:38:55.179Z,18.98
2023-05-14T17:41:21.640Z,18.82
2023-05-14T17:43:48.101Z,18.77
2023-05-14T17:46:14.500Z,18.65
2023-05-14T17:48:40.956Z,18.54
2023-05-14T17:51:07.411Z,18.52
2023-05-14T17:53:33.823Z,18.39
2023-05-14T17:56:00.225Z,18.37
2023-05-14T17:58:26.789Z,18.19
2023-05-14T18:00:53.372Z,18.08
2023-05-14T18:03:20.711Z,18.04
2023-05-14T18:05:47.245Z,17.94
2023-05-14T18:08:14.476Z,17.93
2023-05-14T18:10:41.005Z,17.89
2023-05-14T18:13:07.511Z,17.84
2023-05-14T18:15:35.905Z,17.77
2023-05-14T18:18:02.492Z,17.56
2023-05-14T18:20:29.031Z,17.56
2023-05-14T18:22:55.548Z,17.44
2023-05-14T18:25:22.063Z,17.26
2023-05-14T18:27:48.609Z,17.14
2023-05-14T18:30:15.949Z,17.19
2023-05-14T18:32:44.686Z,17.08
2023-05-14T18:35:11.838Z,17.00
2023-05-14T18:37:38.560Z,16.95
2023-05-14T18:40:06.925Z,16.86
2023-05-14T18:42:34.143Z,16.75
2023-05-14T18:45:01.493Z,16.70
2023-05-14T18:47:28.163Z,16.64
2023-05-14T18:49:57.668Z,16.54
2023-05-14T18:52:24.538Z,16.52
2023-05-14T18:54:50.983Z,16.38
2023-05-14T18:57:17.436Z,16.34
2023-05-14T18:59:44.020Z,16.28
2023-05-14T19:02:10.836Z,16.18
2023-05-14T19:04:50.731Z,16.15
2023-05-14T19:07:18.860Z,16.12
2023-05-14T19:09:45.483Z,16.14
2023-05-14T19:12:12.355Z,16.08
2023-05-14T19:14:38.769Z,15.97
2023-05-14T19:17:05.767Z,15.89
2023-05-14T19:19:32.709Z,15.75
2023-05-14T19:21:59.111Z,15.69
2023-05-14T19:24:25.821Z,15.68
2023-05-14T19:26:52.394Z,15.60
2023-05-14T19:29:18.882Z,15.50
2023-05-14T19:31:45.366Z,15.35
2023-05-14T19:34:11.787Z,15.23
2023-05-14T19:36:38.250Z,15.15
2023-05-14T19:39:04.755Z,15.09
2023-05-14T19:41:31.546Z,14.98
2023-05-14T19:43:58.049Z,14.93
2023-05-14T19:46:24.584Z,14.90
2023-05-14T19:48:51.057Z,14.83
2023-05-14T19:51:17.429Z,14.76
2023-05-14T19:53:43.891Z,14.67
2023-05-14T19:56:10.474Z,14.66
2023-05-14T19:58:36.951Z,14.64
2023-05-14T20:01:04.319Z,14.55
2023-05-14T20:03:30.862Z,14.51
2023-05-14T20:05:57.962Z,14.49
2023-05-14T20:08:24.905Z,14.48
2023-05-14T20:10:51.457Z,14.44
2023-05-14T20:13:17.829Z,14.38
2023-05-14T20:15:44.242Z,14.28
2023-05-14T20:18:10.680Z,14.23
2023-05-14T20:20:37.375Z,14.17
2023-05-14T20:23:03.825Z,14.10
2023-05-14T20:25:32.572Z,14.10
2023-05-14T20:28:00.357Z,14.07
2023-05-14T20:30:27.593Z,14.08
2023-05-14T20:32:54.074Z,14.07
2023-05-14T20:35:20.532Z,14.01
2023-05-14T20:37:47.248Z,13.99
2023-05-14T20:40:13.787Z,14.00
2023-05-14T20:42:40.492Z,13.94
2023-05-14T20:45:07.338Z,13.96
2023-05-14T20:47:34.152Z,13.94
2023-05-14T20:50:01.247Z,13.90
2023-05-14T20:52:27.807Z,13.89
2023-05-14T20:54:54.258Z,13.88
2023-05-14T20:57:20.741Z,13.85
2023-05-14T20:59:47.560Z,13.85
2023-05-14T21:02:14.058Z,13.79
2023-05-14T21:04:41.034Z,13.75
2023-05-14T21:07:07.552Z,13.73
2023-05-14T21:09:33.985Z,13.71
2023-05-14T21:12:00.514Z,13.69
2023-05-14T21:14:26.891Z,13.70
2023-05-14T21:16:53.463Z,13.70
2023-05-14T21:19:20.072Z,13.70
2023-05-14T21:21:47.359Z,13.70
2023-05-14T21:24:13.898Z,13.68
2023-05-14T21:26:41.389Z,13.70
2023-05-14T21:29:07.804Z,13.73
2023-05-14T21:31:34.281Z,13.70
2023-05-14T21:34:00.802Z,13.66
2023-05-14T21:36:27.293Z,13.55
2023-05-14T21:38:53.885Z,13.49
2023-05-14T21:41:21.102Z,13.48
2023-05-14T21:43:47.588Z,13.41
2023-05-14T21:46:14.055Z,13.37
2023-05-14T21:48:40.577Z,13.28
2023-05-14T21:51:07.098Z,13.28
2023-05-14T21:53:34.640Z,13.23
2023-05-14T21:56:01.112Z,13.22
2023-05-14T21:58:27.724Z,13.19
2023-05-14T22:00:54.203Z,13.19
2023-05-14T22:03:20.831Z,13.18
2023-05-14T22:05:47.800Z,13.14
2023-05-14T22:08:14.298Z,13.08
2023-05-14T22:10:40.735Z,13.02
2023-05-14T22:13:07.115Z,13.00
2023-05-14T22:15:34.349Z,12.98
2023-05-14T22:18:00.931Z,12.95
2023-05-14T22:20:27.367Z,12.97
2023-05-14T22:22:53.953Z,12.92
2023-05-14T22:25:20.411Z,12.90
2023-05-14T22:27:46.814Z,12.87
2023-05-14T22:30:13.271Z,12.86
2023-05-14T22:32:39.732Z,12.84
2023-05-14T22:35:06.330Z,12.83
2023-05-14T22:37:32.722Z,12.81
2023-05-14T22:39:59.121Z,12.78
2023-05-14T22:42:27.186Z,12.76
2023-05-14T22:44:53.700Z,12.71
2023-05-14T22:47:20.217Z,12.72
2023-05-14T22:49:46.772Z,12.71
2023-05-14T22:52:13.171Z,12.69
2023-05-14T22:54:39.661Z,12.67
2023-05-14T22:57:06.621Z,12.63
2023-05-14T22:59:33.271Z,12.63
2023-05-14T23:01:59.743Z,12.63
2023-05-14T23:04:26.297Z,12.61
2023-05-14T23:06:52.843Z,12.61
2023-05-14T23:09:19.223Z,12.60
2023-05-14T23:11:46.184Z,12.60
2023-05-14T23:14:12.620Z,12.56
2023-05-14T23:16:39.441Z,12.58
2023-05-14T23:19:06.084Z,12.58
2023-05-14T23:21:33.018Z,12.56
2023-05-14T23:23:59.514Z,12.58
2023-05-14T23:26:26.082Z,12.60
2023-05-14T23:28:52.505Z,12.62
2023-05-14T23:31:18.973Z,12.59
2023-05-14T23:33:46.359Z,12.60
2023-05-14T23:36:12.957Z,12.58
2023-05-14T23:38:40.630Z,12.57
2023-05-14T23:41:07.102Z,12.58
2023-05-14T23:43:33.773Z,12.58
2023-05-14T23:46:00.920Z,12.61
2023-05-14T23:48:27.422Z,12.61
2023-05-14T23:50:53.832Z,12.63
2023-05-14T23:53:20.427Z,12.60
2023-05-14T23:55:46.957Z,12.58
2023-05-14T23:58:13.460Z,12.56
